Time;durP1;ratioP1;P1;durP2;ratioP2;P2;SDS_P1;SDS_P2;PMS_P1;PMS_P2;Temp;Humidity;BMP_temperature;BMP_pressure;BME280_temperature;BME280_humidity;BME280_pressure;Samples;Min_cycle;Max_cycle;Signal;HPM_P1;HPM_P2
2021/07/15 00:02:13;;;;;;;15.03;10.95;;;;;;;20.39;85.59;96079.64;1757728;80;21082;-79
2021/07/15 00:04:40;;;;;;;15.28;11.05;;;;;;;20.37;85.69;96080.94;1773217;79;20954;-79
2021/07/15 00:07:06;;;;;;;15.30;11.28;;;;;;;20.35;85.73;96081.19;1761807;79;20926;-80
2021/07/15 00:09:32;;;;;;;17.85;9.73;;;;;;;20.35;85.72;96096.23;1751456;80;21274;-80
2021/07/15 00:11:58;;;;;;;13.53;10.03;;;;;;;20.34;85.58;96103.35;1783742;79;20903;-79
2021/07/15 00:14:23;;;;;;;13.95;10.90;;;;;;;20.36;85.51;96103.09;1783947;79;20915;-79
2021/07/15 00:16:54;;;;;;;16.23;10.08;;;;;;;20.37;85.67;96108.64;1784949;79;21241;-79
2021/07/15 00:19:25;;;;;;;15.58;10.63;;;;;;;20.35;85.66;96110.74;1771650;79;20958;-80
2021/07/15 00:21:51;;;;;;;13.48;9.70;;;;;;;20.34;85.84;96115.75;1787423;79;20923;-79
2021/07/15 00:24:17;;;;;;;15.15;10.15;;;;;;;20.34;85.76;96112.59;1792760;79;20918;-79
2021/07/15 00:26:45;;;;;;;13.03;9.13;;;;;;;20.37;85.80;96123.16;1757403;80;20936;-80
2021/07/15 00:29:11;;;;;;;15.30;9.80;;;;;;;20.38;85.93;96123.43;1757173;80;20939;-80
2021/07/15 00:31:37;;;;;;;15.72;10.05;;;;;;;20.38;85.61;96128.19;1753933;80;21346;-79
2021/07/15 00:34:03;;;;;;;13.68;9.85;;;;;;;20.40;85.48;96127.93;1789695;79;20973;-79
2021/07/15 00:36:29;;;;;;;14.25;9.55;;;;;;;20.44;85.37;96140.92;1752676;80;20987;-80
2021/07/15 00:38:54;;;;;;;19.65;10.45;;;;;;;20.49;85.20;96148.88;1756653;80;21554;-80
2021/07/15 00:41:21;;;;;;;16.57;9.73;;;;;;;20.54;85.48;96162.14;1753858;80;20935;-79
2021/07/15 00:43:46;;;;;;;16.82;11.05;;;;;;;20.57;85.38;96168.77;1754848;80;20947;-79
2021/07/15 00:46:12;;;;;;;16.97;11.08;;;;;;;20.55;85.34;96185.38;1757576;80;21008;-80
2021/07/15 00:48:38;;;;;;;15.60;10.25;;;;;;;20.54;85.24;96207.54;1753532;80;20996;-79
2021/07/15 00:51:06;;;;;;;17.67;10.50;;;;;;;20.54;85.59;96207.54;1752331;80;21011;-79
2021/07/15 00:53:31;;;;;;;19.30;10.65;;;;;;;20.53;85.44;96216.50;1768108;80;20978;-79
2021/07/15 00:55:57;;;;;;;15.63;9.28;;;;;;;20.53;85.66;96214.66;1772802;80;20980;-79
2021/07/15 00:58:23;;;;;;;15.10;11.12;;;;;;;20.53;85.58;96198.83;1754058;80;21019;-80
2021/07/15 01:00:49;;;;;;;16.95;10.88;;;;;;;20.55;85.59;96177.45;1739904;81;21368;-80
2021/07/15 01:03:17;;;;;;;13.90;10.55;;;;;;;20.53;85.67;96157.91;1713604;82;20940;-79
2021/07/15 01:05:50;;;;;;;19.82;10.13;;;;;;;20.50;85.70;96127.24;1752682;80;20912;-80
2021/07/15 01:08:16;;;;;;;19.10;10.78;;;;;;;20.53;86.12;96105.66;1733448;82;21078;-80
2021/07/15 01:10:55;;;;;;;16.70;10.18;;;;;;;20.51;85.95;96086.64;1736177;81;21005;-79
2021/07/15 01:13:50;;;;;;;13.70;9.58;;;;;;;20.49;86.06;96086.06;1738675;81;20939;-79
2021/07/15 01:16:33;;;;;;;13.20;9.43;;;;;;;20.51;86.01;96079.52;1755541;81;20999;-79
2021/07/15 01:19:26;;;;;;;11.25;9.10;;;;;;;20.51;86.08;96113.03;1747375;81;20940;-79
2021/07/15 01:22:29;;;;;;;15.53;8.63;;;;;;;20.50;86.23;96098.21;1739233;81;21372;-79
2021/07/15 01:25:17;;;;;;;16.10;9.75;;;;;;;20.49;86.05;96101.90;1735901;81;21007;-79
2021/07/15 01:28:06;;;;;;;16.05;10.55;;;;;;;20.48;86.01;96095.83;1737573;81;21051;-80
2021/07/15 01:30:42;;;;;;;14.90;11.10;;;;;;;20.46;86.28;96096.61;1738192;81;20939;-79
2021/07/15 01:33:26;;;;;;;16.60;10.30;;;;;;;20.42;86.35;96102.12;1739509;81;21011;-79
2021/07/15 01:36:03;;;;;;;14.53;10.65;;;;;;;20.41;86.36;96090.47;1746391;81;20971;-79
2021/07/15 01:38:40;;;;;;;13.22;9.38;;;;;;;20.42;86.46;96094.72;1720502;82;20918;-79
2021/07/15 01:41:13;;;;;;;15.10;9.98;;;;;;;20.42;86.43;96098.68;1727188;82;21312;-79
2021/07/15 01:43:42;;;;;;;16.57;9.55;;;;;;;20.45;86.87;96098.97;1748291;81;20992;-79
2021/07/15 01:46:08;;;;;;;14.55;10.00;;;;;;;20.48;86.49;96100.31;1735335;81;20984;-79
2021/07/15 01:48:34;;;;;;;14.78;9.75;;;;;;;20.51;86.36;96101.95;1676220;82;21323;-79
2021/07/15 01:50:59;;;;;;;12.80;9.55;;;;;;;20.55;86.40;96108.83;1756637;80;21014;-79
2021/07/15 01:53:25;;;;;;;15.80;9.53;;;;;;;20.57;86.46;96111.48;1758684;80;20998;-79
2021/07/15 01:55:52;;;;;;;16.25;10.32;;;;;;;20.59;86.39;96110.71;1740562;81;21304;-80
2021/07/15 01:58:18;;;;;;;13.40;10.30;;;;;;;20.58;86.27;96125.48;1764345;81;21070;-79
2021/07/15 02:00:44;;;;;;;12.18;10.43;;;;;;;20.58;86.36;96120.20;1782897;78;20928;-79
2021/07/15 02:03:10;;;;;;;13.18;8.95;;;;;;;20.55;86.57;96122.83;1801397;79;21995;-80
2021/07/15 02:05:36;;;;;;;14.98;9.95;;;;;;;20.49;86.42;96144.92;1802268;79;21007;-79
2021/07/15 02:08:02;;;;;;;13.08;9.50;;;;;;;20.45;86.60;96164.16;1794969;79;21264;-80
2021/07/15 02:10:29;;;;;;;14.43;10.43;;;;;;;20.41;86.38;96140.11;1781716;79;20943;-79
2021/07/15 02:12:55;;;;;;;12.15;9.80;;;;;;;20.42;86.63;96119.27;1770758;79;21244;-79
2021/07/15 02:15:25;;;;;;;14.70;9.80;;;;;;;20.41;86.58;96112.89;1792936;79;21021;-79
2021/07/15 02:17:50;;;;;;;15.80;9.25;;;;;;;20.43;86.53;96096.31;1799849;79;20995;-79
2021/07/15 02:20:17;;;;;;;12.43;9.33;;;;;;;20.45;86.71;96083.66;1792629;79;21405;-80
2021/07/15 02:22:43;;;;;;;14.70;10.18;;;;;;;20.43;86.53;96101.59;1758806;80;21007;-79
2021/07/15 02:25:10;;;;;;;13.95;9.73;;;;;;;20.43;86.86;96083.13;1776230;79;21338;-79
2021/07/15 02:27:36;;;;;;;15.03;10.75;;;;;;;20.41;86.67;96079.91;1772578;79;20992;-80
2021/07/15 02:30:06;;;;;;;15.80;10.65;;;;;;;20.40;86.60;96084.39;1772169;79;20879;-79
2021/07/15 02:32:32;;;;;;;16.67;9.98;;;;;;;20.39;86.55;96078.84;1771972;79;20950;-79
2021/07/15 02:35:01;;;;;;;15.15;9.70;;;;;;;20.33;86.62;96067.95;1766253;79;20947;-80
2021/07/15 02:37:34;;;;;;;15.43;10.30;;;;;;;20.29;86.48;96074.26;1769769;79;20987;-79
2021/07/15 02:39:59;;;;;;;13.10;10.40;;;;;;;20.27;86.73;96076.36;1770599;79;20966;-79
2021/07/15 02:42:25;;;;;;;13.38;10.50;;;;;;;20.26;86.83;96070.80;1771706;79;20923;-79
2021/07/15 02:44:51;;;;;;;16.35;10.90;;;;;;;20.28;86.76;96083.22;1772156;79;21272;-80
2021/07/15 02:47:16;;;;;;;10.48;9.48;;;;;;;20.30;86.60;96098.27;1773943;79;20932;-79
2021/07/15 02:49:42;;;;;;;14.58;10.45;;;;;;;20.31;86.50;96106.46;1772796;79;20935;-79
2021/07/15 02:52:09;;;;;;;14.78;11.97;;;;;;;20.27;86.29;96103.27;1765460;79;20886;-79
2021/07/15 02:54:38;;;;;;;17.02;11.65;;;;;;;20.23;86.43;96099.53;1772744;79;20919;-79
2021/07/15 02:57:36;;;;;;;15.23;10.65;;;;;;;20.23;86.30;96092.94;1771898;79;21050;-79
2021/07/15 03:00:15;;;;;;;18.42;11.57;;;;;;;20.25;86.50;96095.59;1765204;80;21007;-79
2021/07/15 03:03:04;;;;;;;14.18;10.75;;;;;;;20.17;86.05;96098.67;1738023;81;21047;-79
2021/07/15 03:05:53;;;;;;;12.85;9.68;;;;;;;20.15;86.27;96090.73;1753078;81;20978;-80
2021/07/15 03:08:25;;;;;;;17.60;10.15;;;;;;;20.12;86.38;96082.80;1725576;80;20947;-79
2021/07/15 03:10:53;;;;;;;17.17;10.98;;;;;;;20.17;86.33;96088.64;1741341;80;21283;-79
2021/07/15 03:13:19;;;;;;;13.70;10.45;;;;;;;20.20;86.35;96094.23;1746345;80;21347;-79
2021/07/15 03:15:44;;;;;;;15.90;11.88;;;;;;;20.23;86.32;96095.05;1719588;81;21003;-79
2021/07/15 03:18:10;;;;;;;13.18;10.40;;;;;;;20.22;86.12;96085.55;1742348;80;20919;-80
2021/07/15 03:20:40;;;;;;;14.75;9.98;;;;;;;20.21;85.87;96091.08;1748521;80;21263;-79
2021/07/15 03:23:12;;;;;;;11.08;8.55;;;;;;;20.20;86.04;96097.41;1742191;80;21272;-79
2021/07/15 03:25:38;;;;;;;15.38;10.25;;;;;;;20.19;85.92;96099.77;1724243;81;20955;-80
2021/07/15 03:28:09;;;;;;;13.00;9.48;;;;;;;20.19;86.18;96104.52;1748199;80;20911;-80
2021/07/15 03:30:36;;;;;;;12.18;9.10;;;;;;;20.18;86.08;96101.61;1715567;80;20955;-80
2021/07/15 03:33:01;;;;;;;13.55;9.23;;;;;;;20.21;85.94;96096.36;1744291;80;21053;-79
2021/07/15 03:35:27;;;;;;;9.65;7.60;;;;;;;20.19;86.00;96095.28;1743160;80;20999;-80
2021/07/15 03:37:53;;;;;;;12.98;9.53;;;;;;;20.17;85.93;96092.59;1748898;80;21424;-79
2021/07/15 03:40:22;;;;;;;10.05;8.28;;;;;;;20.10;86.03;96090.17;1745312;80;20991;-79
2021/07/15 03:42:48;;;;;;;11.12;9.58;;;;;;;20.10;86.06;96086.22;1725879;81;20998;-80
2021/07/15 03:45:16;;;;;;;11.25;8.18;;;;;;;20.06;85.70;96089.88;1745519;80;20979;-80
2021/07/15 03:47:42;;;;;;;14.10;9.20;;;;;;;19.99;85.75;96099.02;1743426;80;20942;-80
2021/07/15 03:50:08;;;;;;;14.63;9.35;;;;;;;19.95;85.70;96097.92;1751969;80;21023;-79
2021/07/15 03:52:34;;;;;;;13.55;8.80;;;;;;;19.96;85.96;96101.63;1739044;80;20963;-79
2021/07/15 03:55:00;;;;;;;13.00;8.23;;;;;;;19.98;85.90;96100.05;1744214;80;21243;-80
2021/07/15 03:57:28;;;;;;;13.38;8.43;;;;;;;20.00;85.83;96098.77;1743668;80;20995;-78
2021/07/15 03:59:54;;;;;;;13.68;9.10;;;;;;;19.99;85.56;96095.85;1746683;80;20994;-79
2021/07/15 04:02:23;;;;;;;19.90;10.68;;;;;;;19.98;85.59;96092.14;1753961;81;21009;-79
2021/07/15 04:04:52;;;;;;;17.10;8.43;;;;;;;19.94;85.60;96079.19;1755819;81;20930;-80
2021/07/15 04:07:18;;;;;;;14.93;8.55;;;;;;;19.92;85.67;96070.21;1763960;81;20933;-80
2021/07/15 04:09:44;;;;;;;11.45;7.35;;;;;;;19.89;85.66;96060.69;1764239;81;20979;-79
2021/07/15 04:12:10;;;;;;;9.68;6.78;;;;;;;19.86;85.77;96058.03;1757733;81;21033;-79
2021/07/15 04:14:47;;;;;;;13.93;6.83;;;;;;;19.90;85.97;96051.73;1706417;81;20985;-79
2021/07/15 04:17:14;;;;;;;15.25;7.87;;;;;;;19.84;85.77;96049.55;1757165;81;21428;-79
2021/07/15 04:19:40;;;;;;;9.60;7.75;;;;;;;19.77;85.62;96048.44;1747877;81;20978;-79
2021/07/15 04:22:06;;;;;;;8.73;7.15;;;;;;;19.89;85.91;96072.03;1744800;81;20959;-79
2021/07/15 04:24:31;;;;;;;11.73;9.45;;;;;;;19.89;85.91;96072.03;1723069;82;20891;-79
2021/07/15 04:26:58;;;;;;;14.35;8.83;;;;;;;19.93;85.92;96096.85;1732521;81;20941;-79
2021/07/15 04:29:24;;;;;;;15.03;7.42;;;;;;;19.92;86.09;96118.20;1776333;80;20955;-79
2021/07/15 04:32:05;;;;;;;10.43;7.17;;;;;;;19.91;86.18;96112.66;1737695;81;21300;-79
2021/07/15 04:34:32;;;;;;;12.88;6.62;;;;;;;19.94;86.10;96112.16;1763712;81;20900;-79
2021/07/15 04:36:57;;;;;;;11.93;7.17;;;;;;;19.98;86.25;96105.33;1745947;81;20910;-79
2021/07/15 04:39:26;;;;;;;12.00;7.50;;;;;;;20.01;86.06;96120.66;1751525;81;20923;-79
2021/07/15 04:41:51;;;;;;;11.75;7.03;;;;;;;20.03;86.05;96122.03;1744474;81;20977;-79
2021/07/15 04:44:16;;;;;;;16.10;7.55;;;;;;;20.06;86.00;96127.33;1733549;81;20930;-80
2021/07/15 04:46:42;;;;;;;14.18;7.95;;;;;;;20.05;85.66;96135.76;1728890;82;20899;-79
2021/07/15 04:49:08;;;;;;;12.50;7.80;;;;;;;20.07;85.75;96132.35;1710271;81;20939;-79
2021/07/15 04:51:42;;;;;;;8.90;7.15;;;;;;;20.07;85.81;96126.28;1728238;82;20952;-79
2021/07/15 04:54:08;;;;;;;12.73;6.90;;;;;;;20.07;85.78;96131.03;1729440;82;20925;-79
2021/07/15 04:56:34;;;;;;;14.28;6.67;;;;;;;20.08;85.83;96137.09;1725277;82;20937;-80
2021/07/15 04:59:01;;;;;;;9.75;6.03;;;;;;;20.07;85.99;96131.55;1728459;81;21296;-80
2021/07/15 05:01:27;;;;;;;14.87;7.25;;;;;;;20.09;85.96;96136.84;1752196;80;21268;-80
2021/07/15 05:03:52;;;;;;;14.33;6.72;;;;;;;20.10;85.82;96145.56;1787896;79;20971;-79
2021/07/15 05:06:21;;;;;;;13.35;8.03;;;;;;;20.13;85.99;96159.56;1767830;80;20959;-79
2021/07/15 05:08:46;;;;;;;12.50;7.45;;;;;;;20.16;85.93;96180.17;1772765;79;21307;-79
2021/07/15 05:11:12;;;;;;;11.40;7.80;;;;;;;20.12;86.12;96172.48;1776159;79;20966;-80
2021/07/15 05:13:38;;;;;;;12.65;7.35;;;;;;;20.02;85.98;96140.22;1774207;79;21043;-80
2021/07/15 05:16:05;;;;;;;11.18;7.95;;;;;;;19.87;85.79;96136.08;1771906;79;21261;-79
2021/07/15 05:18:31;;;;;;;12.07;8.08;;;;;;;19.72;85.99;96126.15;1767200;80;20929;-78
2021/07/15 05:20:57;;;;;;;9.78;8.50;;;;;;;19.68;86.33;96132.93;1798087;79;20955;-79
2021/07/15 05:23:22;;;;;;;14.28;8.45;;;;;;;19.75;86.75;96126.97;1775801;79;21018;-80
2021/07/15 05:25:50;;;;;;;11.40;8.38;;;;;;;19.89;86.93;96130.56;1776324;79;21430;-80
2021/07/15 05:28:16;;;;;;;10.85;7.10;;;;;;;19.97;86.95;96120.36;1764781;79;20964;-79
2021/07/15 05:30:42;;;;;;;13.58;6.65;;;;;;;20.03;87.12;96100.92;1774901;79;20999;-79
2021/07/15 05:33:08;;;;;;;14.03;7.45;;;;;;;20.03;86.92;96097.50;1769804;79;20965;-79
2021/07/15 05:35:34;;;;;;;12.70;7.15;;;;;;;20.12;87.17;96092.56;1772033;79;21037;-79
2021/07/15 05:38:00;;;;;;;10.78;6.80;;;;;;;20.22;87.09;96094.78;1774461;79;20972;-80
2021/07/15 05:40:26;;;;;;;12.85;7.28;;;;;;;20.31;86.94;96102.50;1778846;79;20945;-80
2021/07/15 05:42:51;;;;;;;12.18;5.90;;;;;;;20.37;86.69;96106.80;1775733;80;20906;-80
2021/07/15 05:45:17;;;;;;;14.28;6.97;;;;;;;20.44;86.63;96115.06;1776359;79;20939;-79
2021/07/15 05:47:43;;;;;;;10.60;6.78;;;;;;;20.49;86.69;96122.48;1769274;80;20899;-79
2021/07/15 05:50:10;;;;;;;12.68;7.15;;;;;;;20.56;86.98;96123.09;1768965;79;21222;-79
2021/07/15 05:52:35;;;;;;;10.80;6.80;;;;;;;20.63;86.82;96126.31;1771141;79;20986;-80
2021/07/15 05:55:01;;;;;;;12.98;6.70;;;;;;;20.62;86.38;96143.20;1775997;79;20883;-79
2021/07/15 05:57:27;;;;;;;7.70;6.28;;;;;;;20.64;86.70;96151.66;1777226;79;20959;-79
2021/07/15 05:59:53;;;;;;;11.28;6.95;;;;;;;20.65;86.56;96161.70;1794050;79;20988;-79
2021/07/15 06:02:19;;;;;;;9.50;6.20;;;;;;;20.63;86.39;96167.75;1782208;80;20955;-80
2021/07/15 06:04:46;;;;;;;10.48;6.72;;;;;;;20.56;85.31;96173.77;1776696;79;21188;-80
2021/07/15 06:07:11;;;;;;;13.68;7.08;;;;;;;20.46;84.48;96185.53;1779777;79;20938;-80
2021/07/15 06:09:37;;;;;;;8.13;6.70;;;;;;;20.35;83.74;96213.65;1748350;81;20922;-79
2021/07/15 06:12:03;;;;;;;8.25;5.70;;;;;;;20.21;83.42;96224.30;1771242;79;20916;-79
2021/07/15 06:14:30;;;;;;;8.43;5.62;;;;;;;20.11;83.73;96222.84;1791218;79;20971;-80
2021/07/15 06:16:56;;;;;;;8.23;5.95;;;;;;;20.03;83.72;96230.68;1783192;79;20898;-80
2021/07/15 06:19:21;;;;;;;11.45;6.85;;;;;;;19.97;83.81;96230.31;1765203;80;20890;-80
2021/07/15 06:21:47;;;;;;;6.22;5.58;;;;;;;19.90;83.88;96217.33;1764860;80;20938;-79
2021/07/15 06:24:13;;;;;;;8.23;5.70;;;;;;;19.88;83.97;96220.73;1760984;80;21264;-80
2021/07/15 06:26:38;;;;;;;10.23;6.85;;;;;;;19.84;84.16;96210.38;1748225;80;20987;-80
2021/07/15 06:29:04;;;;;;;10.75;7.03;;;;;;;19.78;84.26;96183.16;1753678;79;21383;-80
2021/07/15 06:31:32;;;;;;;9.18;6.83;;;;;;;19.74;84.30;96168.88;1805709;79;20991;-79
2021/07/15 06:33:59;;;;;;;9.28;6.75;;;;;;;19.67;84.63;96161.65;1816898;79;20967;-80
2021/07/15 06:36:25;;;;;;;11.20;6.80;;;;;;;19.63;84.71;96165.02;1758275;80;20875;-80
2021/07/15 06:38:51;;;;;;;8.55;6.42;;;;;;;19.60;84.77;96160.25;1758752;80;20930;-79
2021/07/15 06:41:17;;;;;;;8.98;6.00;;;;;;;19.62;84.86;96166.06;1765281;80;20972;-79
2021/07/15 06:43:43;;;;;;;11.35;6.80;;;;;;;19.63;85.06;96165.82;1762517;80;20986;-80
2021/07/15 06:46:08;;;;;;;10.03;6.05;;;;;;;19.64;85.01;96150.80;1759399;80;21311;-79
2021/07/15 06:48:34;;;;;;;8.60;6.28;;;;;;;19.64;85.14;96136.31;1762274;80;20890;-80
2021/07/15 06:51:07;;;;;;;9.75;7.70;;;;;;;19.65;85.23;96134.74;1748947;80;20970;-80
2021/07/15 06:53:35;;;;;;;11.08;7.22;;;;;;;19.68;85.38;96149.27;1721849;80;20980;-79
2021/07/15 06:56:01;;;;;;;9.38;6.60;;;;;;;19.70;85.68;96153.28;1770225;79;20949;-78
2021/07/15 06:58:28;;;;;;;10.45;7.08;;;;;;;19.76;86.15;96174.70;1759116;79;21307;-78
2021/07/15 07:00:57;;;;;;;12.65;8.65;;;;;;;19.79;86.04;96183.43;1771427;79;20957;-79
2021/07/15 07:03:24;;;;;;;10.82;8.13;;;;;;;19.89;86.59;96187.25;1761901;79;21058;-79
2021/07/15 07:05:52;;;;;;;12.98;7.95;;;;;;;19.89;86.29;96184.61;1781557;79;20932;-79
2021/07/15 07:08:17;;;;;;;10.55;7.75;;;;;;;19.89;86.12;96184.09;1776985;79;20945;-80
2021/07/15 07:10:43;;;;;;;11.78;7.90;;;;;;;19.97;86.88;96184.17;1775901;79;20902;-80
2021/07/15 07:13:09;;;;;;;8.95;7.33;;;;;;;20.02;86.70;96193.48;1785865;79;20891;-80
2021/07/15 07:15:34;;;;;;;14.40;8.35;;;;;;;20.16;86.66;96191.25;1782903;79;20906;-79
2021/07/15 07:18:00;;;;;;;10.63;7.75;;;;;;;20.25;87.10;96187.94;1755238;80;21362;-80
2021/07/15 07:20:26;;;;;;;10.70;9.23;;;;;;;20.31;87.19;96194.84;1746206;80;20982;-80
2021/07/15 07:22:51;;;;;;;11.95;9.55;;;;;;;20.41;87.13;96192.89;1782459;79;20995;-79
2021/07/15 07:25:17;;;;;;;14.47;9.25;;;;;;;20.56;87.59;96199.64;1800557;79;21034;-80
2021/07/15 07:27:44;;;;;;;11.48;8.35;;;;;;;20.69;87.40;96202.41;1800352;79;20951;-80
2021/07/15 07:30:13;;;;;;;12.47;8.80;;;;;;;20.80;87.14;96198.80;1799124;79;20962;-80
2021/07/15 07:32:39;;;;;;;10.03;8.80;;;;;;;20.91;86.36;96203.13;1792173;79;20974;-80
2021/07/15 07:35:05;;;;;;;12.40;7.97;;;;;;;20.93;86.61;96206.84;1790775;79;20939;-79
2021/07/15 07:37:31;;;;;;;10.48;7.72;;;;;;;21.01;87.02;96199.80;1791940;79;21293;-80
2021/07/15 07:39:57;;;;;;;7.72;6.92;;;;;;;21.09;86.91;96201.95;1791871;79;20995;-80
2021/07/15 07:42:23;;;;;;;10.98;7.00;;;;;;;21.17;86.42;96199.39;1746443;79;20930;-80
2021/07/15 07:44:49;;;;;;;8.18;6.67;;;;;;;21.20;85.00;96200.20;1769496;79;21214;-80
2021/07/15 07:47:15;;;;;;;10.30;6.60;;;;;;;21.21;85.04;96205.23;1769883;79;20915;-79
2021/07/15 07:49:40;;;;;;;8.40;7.22;;;;;;;21.22;85.10;96219.23;1756948;79;20938;-80
2021/07/15 07:52:06;;;;;;;9.28;6.42;;;;;;;21.22;85.10;96219.23;1734354;79;20980;-80
2021/07/15 07:54:32;;;;;;;10.53;7.55;;;;;;;21.25;85.27;96232.77;1770828;79;20894;-80
2021/07/15 07:56:58;;;;;;;11.00;7.85;;;;;;;21.24;85.19;96235.63;1771008;79;20962;-80
2021/07/15 07:59:24;;;;;;;11.45;8.63;;;;;;;21.25;85.38;96244.66;1770976;79;21252;-80
2021/07/15 08:01:51;;;;;;;12.15;9.00;;;;;;;21.30;85.30;96250.50;1776913;79;20992;-79
2021/07/15 08:04:17;;;;;;;11.28;6.33;;;;;;;21.37;85.41;96254.27;1754949;80;20961;-80
2021/07/15 08:06:45;;;;;;;7.33;6.60;;;;;;;21.42;85.44;96253.77;1713508;81;20901;-80
2021/07/15 08:09:16;;;;;;;11.25;7.95;;;;;;;21.47;85.22;96254.33;1737712;81;20939;-80
2021/07/15 08:11:45;;;;;;;10.15;8.10;;;;;;;21.47;84.92;96263.05;1768145;80;20998;-80
2021/07/15 08:14:09;;;;;;;7.78;5.35;;;;;;;21.48;85.03;96262.03;1764125;80;21070;-79
2021/07/15 08:16:35;;;;;;;7.67;5.12;;;;;;;21.52;85.03;96259.14;1747866;80;21097;-79
2021/07/15 08:19:00;;;;;;;8.03;5.53;;;;;;;21.55;84.92;96258.63;1753612;80;21010;-79
2021/07/15 08:21:26;;;;;;;8.00;6.30;;;;;;;21.61;84.96;96254.69;1731296;81;21402;-79
2021/07/15 08:23:52;;;;;;;9.80;5.50;;;;;;;21.66;85.07;96252.09;1772560;80;20947;-79
2021/07/15 08:26:18;;;;;;;7.67;6.28;;;;;;;21.67;84.90;96251.05;1756688;80;20951;-79
2021/07/15 08:28:44;;;;;;;8.25;6.70;;;;;;;21.75;85.08;96253.20;1758949;80;20908;-80
2021/07/15 08:31:10;;;;;;;12.05;6.53;;;;;;;21.75;85.08;96253.20;1730232;81;21254;-79
2021/07/15 08:33:36;;;;;;;7.15;6.45;;;;;;;21.79;84.62;96254.27;1741105;80;20951;-79
2021/07/15 08:36:02;;;;;;;8.25;5.35;;;;;;;21.84;85.13;96259.09;1737623;80;20934;-79
2021/07/15 08:38:28;;;;;;;11.12;6.33;;;;;;;21.91;84.62;96264.14;1715509;82;20942;-79
2021/07/15 08:40:54;;;;;;;7.17;5.60;;;;;;;21.98;84.92;96271.34;1744876;80;20908;-79
2021/07/15 08:43:20;;;;;;;11.10;7.55;;;;;;;22.10;85.02;96267.17;1713757;81;20914;-80
2021/07/15 08:45:45;;;;;;;8.70;7.03;;;;;;;22.19;84.49;96256.38;1751858;80;21249;-80
2021/07/15 08:48:12;;;;;;;9.35;7.17;;;;;;;22.40;83.50;96265.99;1741176;81;20936;-80
2021/07/15 08:50:40;;;;;;;7.72;6.92;;;;;;;22.59;84.07;96261.02;1716080;81;20950;-80
2021/07/15 08:53:05;;;;;;;10.85;8.08;;;;;;;22.84;84.30;96256.36;1727046;81;20982;-80
2021/07/15 08:58:15;;;;;;;11.55;8.88;;;;;;;23.22;83.33;96257.72;1752776;80;21324;-80
2021/07/15 09:00:41;;;;;;;12.10;9.40;;;;;;;23.27;82.35;96257.73;1746733;80;21555;-80
2021/07/15 09:03:08;;;;;;;14.35;9.53;;;;;;;23.41;82.57;96254.53;1765083;79;21045;-79
2021/07/15 09:05:34;;;;;;;13.38;7.90;;;;;;;23.62;81.91;96256.95;1772916;79;20898;-79
2021/07/15 09:08:01;;;;;;;14.15;6.90;;;;;;;23.76;81.41;96258.53;1773474;79;21212;-80
2021/07/15 09:10:27;;;;;;;10.05;7.00;;;;;;;23.83;78.59;96252.41;1774067;80;20961;-80
2021/07/15 09:12:53;;;;;;;9.58;6.22;;;;;;;23.85;78.47;96254.25;1747535;81;20926;-80
2021/07/15 09:15:18;;;;;;;9.65;7.00;;;;;;;23.84;79.08;96255.31;1770451;79;21307;-80
2021/07/15 09:17:44;;;;;;;6.97;6.20;;;;;;;23.90;80.00;96258.20;1763130;79;20907;-79
2021/07/15 09:20:23;;;;;;;9.20;5.97;;;;;;;23.97;79.94;96255.83;1747530;81;20946;-80
2021/07/15 09:23:01;;;;;;;8.93;6.50;;;;;;;24.01;79.96;96260.84;1776738;79;20918;-80
2021/07/15 09:25:42;;;;;;;10.10;7.45;;;;;;;24.12;79.22;96259.77;1772891;79;20883;-80
2021/07/15 09:28:11;;;;;;;12.63;7.45;;;;;;;24.20;77.89;96265.83;1773392;79;21013;-80
2021/07/15 09:30:38;;;;;;;11.10;7.22;;;;;;;24.26;77.67;96271.41;1727801;81;21023;-80
2021/07/15 09:33:12;;;;;;;9.40;6.30;;;;;;;24.27;78.85;96270.87;1763540;79;21252;-80
2021/07/15 09:35:44;;;;;;;7.65;5.78;;;;;;;24.24;78.53;96279.64;1768248;79;20965;-81
2021/07/15 09:38:21;;;;;;;12.03;7.30;;;;;;;24.30;78.51;96281.77;1772973;80;20941;-80
2021/07/15 09:40:57;;;;;;;9.30;6.97;;;;;;;24.34;77.14;96272.72;1760254;80;21238;-80
2021/07/15 09:43:33;;;;;;;8.93;6.62;;;;;;;24.29;78.14;96278.03;1773345;79;20929;-80
2021/07/15 09:46:02;;;;;;;8.48;6.00;;;;;;;24.37;78.52;96278.81;1772809;80;20950;-80
2021/07/15 09:48:29;;;;;;;7.97;5.90;;;;;;;24.49;78.36;96275.31;1762833;79;21245;-80
2021/07/15 09:51:00;;;;;;;8.20;6.20;;;;;;;24.62;76.43;96279.25;1769954;79;20889;-80
2021/07/15 09:53:28;;;;;;;9.80;6.20;;;;;;;24.65;77.38;96275.50;1772988;79;21359;-80
2021/07/15 09:56:10;;;;;;;11.55;6.60;;;;;;;24.65;76.73;96274.17;1771603;79;21279;-79
2021/07/15 09:58:46;;;;;;;10.03;6.05;;;;;;;24.72;77.70;96271.20;1766997;80;20887;-79
2021/07/15 10:01:16;;;;;;;9.25;6.22;;;;;;;24.85;78.05;96267.95;1769899;79;20933;-80
2021/07/15 10:03:48;;;;;;;9.13;5.90;;;;;;;25.00;78.29;96264.44;1774572;79;21089;-80
2021/07/15 10:06:15;;;;;;;7.95;6.28;;;;;;;25.15;75.95;96266.99;1774273;80;20915;-80
2021/07/15 10:08:43;;;;;;;10.82;6.65;;;;;;;25.33;74.29;96267.65;1771001;79;20894;-80
2021/07/15 10:11:29;;;;;;;8.50;5.50;;;;;;;25.48;74.89;96265.41;1775321;79;20941;-80
2021/07/15 10:14:08;;;;;;;9.85;6.72;;;;;;;25.51;69.58;96263.52;1797458;79;20907;-80
2021/07/15 10:16:42;;;;;;;10.50;6.60;;;;;;;25.55;73.74;96261.91;1785017;79;21026;-80
2021/07/15 10:19:21;;;;;;;8.03;5.55;;;;;;;25.59;74.31;96256.27;1776387;79;20957;-80
2021/07/15 10:21:56;;;;;;;10.50;5.40;;;;;;;25.66;74.38;96255.39;1775263;79;21293;-80
2021/07/15 10:24:25;;;;;;;9.58;6.47;;;;;;;25.76;74.39;96252.42;1775068;79;20963;-80
2021/07/15 10:27:03;;;;;;;9.95;5.67;;;;;;;25.78;73.46;96253.72;1775951;79;21422;-80
2021/07/15 10:29:28;;;;;;;9.63;5.67;;;;;;;25.77;72.83;96254.02;1803292;79;20975;-80
2021/07/15 10:31:54;;;;;;;8.25;5.33;;;;;;;25.77;69.02;96251.34;1787797;79;20977;-80
2021/07/15 10:34:19;;;;;;;7.15;4.67;;;;;;;25.79;72.87;96246.00;1785873;79;21359;-80
2021/07/15 10:36:45;;;;;;;8.45;5.58;;;;;;;25.91;71.49;96246.95;1775060;79;21047;-81
2021/07/15 10:39:14;;;;;;;7.17;5.45;;;;;;;25.96;72.93;96242.36;1774713;79;20956;-81
2021/07/15 10:41:53;;;;;;;9.58;6.03;;;;;;;25.92;72.80;96236.56;1771983;79;20961;-80
2021/07/15 10:44:18;;;;;;;8.58;5.35;;;;;;;25.95;72.45;96238.11;1779977;79;20975;-79
2021/07/15 10:46:44;;;;;;;6.90;5.33;;;;;;;26.00;71.49;96230.59;1774550;79;21074;-80
2021/07/15 10:49:11;;;;;;;5.15;4.30;;;;;;;25.96;70.80;96239.70;1781957;79;21359;-80
2021/07/15 10:51:38;;;;;;;7.92;5.30;;;;;;;26.06;71.48;96230.81;1744049;80;20990;-79
2021/07/15 10:54:05;;;;;;;8.40;4.83;;;;;;;26.09;71.34;96232.11;1776729;79;21264;-79
2021/07/15 10:56:31;;;;;;;7.22;4.45;;;;;;;26.06;72.25;96234.02;1778588;79;20921;-79
2021/07/15 10:59:00;;;;;;;7.50;5.08;;;;;;;25.96;71.00;96225.05;1791386;79;20914;-79
2021/07/15 11:01:37;;;;;;;6.03;4.45;;;;;;;25.96;71.00;96225.05;1760756;79;20895;-80
2021/07/15 11:04:23;;;;;;;6.35;4.85;;;;;;;26.07;69.61;96232.39;1788645;79;20975;-80
2021/07/15 11:06:51;;;;;;;5.95;4.60;;;;;;;26.11;71.39;96224.09;1796437;79;20888;-79
2021/07/15 11:09:30;;;;;;;7.08;5.28;;;;;;;26.26;68.64;96227.11;1790220;79;21003;-79
2021/07/15 11:11:57;;;;;;;5.78;4.25;;;;;;;26.34;68.11;96218.47;1780489;79;20934;-79
2021/07/15 11:14:40;;;;;;;6.37;4.20;;;;;;;26.40;67.81;96217.38;1783762;79;20967;-80
2021/07/15 11:17:27;;;;;;;7.90;4.90;;;;;;;26.48;67.08;96217.27;1785610;79;20947;-79
2021/07/15 11:20:01;;;;;;;5.55;4.90;;;;;;;26.47;68.00;96213.81;1791418;79;20915;-79
2021/07/15 11:22:55;;;;;;;7.42;4.85;;;;;;;26.54;67.30;96215.59;1788353;79;20983;-79
2021/07/15 11:25:35;;;;;;;10.68;5.22;;;;;;;26.63;66.60;96212.52;1781615;79;21253;-79
2021/07/15 11:28:23;;;;;;;7.78;4.75;;;;;;;26.71;64.83;96207.10;1781951;79;20912;-79
2021/07/15 11:30:52;;;;;;;6.25;4.40;;;;;;;26.71;66.37;96207.64;1789669;79;20912;-79
2021/07/15 11:33:25;;;;;;;6.60;4.55;;;;;;;26.75;64.54;96208.64;1790530;79;20984;-79
2021/07/15 11:36:04;;;;;;;5.35;4.78;;;;;;;26.77;63.16;96216.59;1791457;79;21156;-79
2021/07/15 11:38:48;;;;;;;5.22;4.67;;;;;;;26.76;64.65;96203.02;1788547;79;21352;-80